createdAt,value
2022-09-18T00:00:13.149Z,11.50
2022-09-18T00:02:45.211Z,11.50
2022-09-18T00:05:17.190Z,11.48
2022-09-18T00:07:49.226Z,11.48
2022-09-18T00:10:21.203Z,11.47
2022-09-18T00:12:53.468Z,11.46
2022-09-18T00:15:25.651Z,11.46
2022-09-18T00:17:57.623Z,11.47
2022-09-18T00:20:29.779Z,11.45
2022-09-18T00:23:01.909Z,11.44
2022-09-18T00:25:33.913Z,11.48
2022-09-18T00:28:07.482Z,11.46
2022-09-18T00:30:39.897Z,11.45
2022-09-18T00:33:12.086Z,11.42
2022-09-18T00:35:47.588Z,11.40
2022-09-18T00:38:19.803Z,11.42
2022-09-18T00:40:51.990Z,11.41
2022-09-18T00:43:26.825Z,11.40
2022-09-18T00:46:04.631Z,11.38
2022-09-18T00:49:04.010Z,11.37
2022-09-18T00:51:38.263Z,11.35
2022-09-18T00:54:28.086Z,11.31
2022-09-18T00:57:03.313Z,11.30
2022-09-18T00:59:37.600Z,11.27
2022-09-18T01:02:09.706Z,11.22
2022-09-18T01:04:42.751Z,11.18
2022-09-18T01:07:37.007Z,11.14
2022-09-18T01:10:24.149Z,11.12
2022-09-18T01:13:05.144Z,11.06
2022-09-18T01:15:46.096Z,10.98
2022-09-18T01:18:39.427Z,10.91
2022-09-18T01:21:14.902Z,10.84
2022-09-18T01:24:23.246Z,10.82
2022-09-18T01:27:06.887Z,10.76
2022-09-18T01:29:41.864Z,10.72
2022-09-18T01:32:29.029Z,10.69
2022-09-18T01:35:40.000Z,10.68
2022-09-18T01:37:58.593Z,10.65
2022-09-18T01:40:36.844Z,10.64
2022-09-18T01:43:11.820Z,10.61
2022-09-18T01:45:46.922Z,10.55
2022-09-18T01:48:29.760Z,10.49
2022-09-18T01:51:14.702Z,10.45
2022-09-18T01:53:49.703Z,10.43
2022-09-18T01:56:31.201Z,10.37
2022-09-18T01:59:06.970Z,10.32
2022-09-18T02:01:43.686Z,10.30
2022-09-18T02:04:21.706Z,10.30
2022-09-18T02:06:57.623Z,10.28
2022-09-18T02:09:31.274Z,10.26
2022-09-18T02:12:05.144Z,10.26
2022-09-18T02:14:40.660Z,10.26
2022-09-18T02:17:32.052Z,10.27
2022-09-18T02:20:08.941Z,10.24
2022-09-18T02:22:45.616Z,10.21
2022-09-18T02:25:20.884Z,10.19
2022-09-18T02:27:55.383Z,10.21
2022-09-18T02:30:28.030Z,10.23
2022-09-18T02:32:59.835Z,10.35
2022-09-18T02:35:35.037Z,10.25
2022-09-18T02:38:10.224Z,10.25
2022-09-18T02:41:06.214Z,10.25
2022-09-18T02:43:46.958Z,10.26
2022-09-18T02:46:25.651Z,10.24
2022-09-18T02:49:17.313Z,10.22
2022-09-18T02:51:53.876Z,10.17
2022-09-18T02:54:43.573Z,10.14
2022-09-18T02:57:21.399Z,10.14
2022-09-18T02:59:56.744Z,10.11
2022-09-18T03:02:30.601Z,10.13
2022-09-18T03:05:04.090Z,10.12
2022-09-18T03:07:38.356Z,10.15
2022-09-18T03:10:11.982Z,10.15
2022-09-18T03:12:44.658Z,10.14
2022-09-18T03:15:16.840Z,10.10
2022-09-18T03:17:49.011Z,10.08
2022-09-18T03:20:21.380Z,10.06
2022-09-18T03:22:53.962Z,10.04
2022-09-18T03:25:26.308Z,10.05
2022-09-18T03:27:58.452Z,10.04
2022-09-18T03:30:32.719Z,10.04
2022-09-18T03:33:06.156Z,10.05
2022-09-18T03:35:38.716Z,10.03
2022-09-18T03:38:11.653Z,10.04
2022-09-18T03:40:47.974Z,10.06
2022-09-18T03:43:20.971Z,10.12
2022-09-18T03:45:54.355Z,10.19
2022-09-18T03:48:26.692Z,10.20
2022-09-18T03:50:58.899Z,10.24
2022-09-18T03:53:31.031Z,10.27
2022-09-18T03:56:20.556Z,10.32
2022-09-18T03:58:57.225Z,10.40
2022-09-18T04:01:31.060Z,10.54
2022-09-18T04:04:20.408Z,10.68
2022-09-18T04:07:10.441Z,10.82
2022-09-18T04:09:59.797Z,10.98
2022-09-18T04:12:32.286Z,11.11
2022-09-18T04:15:11.828Z,11.18
2022-09-18T04:17:43.910Z,11.27
2022-09-18T04:20:16.111Z,11.36
2022-09-18T04:22:48.378Z,11.46
2022-09-18T04:25:20.518Z,11.59
2022-09-18T04:27:52.548Z,11.71
2022-09-18T04:30:25.394Z,11.83
2022-09-18T04:32:57.868Z,11.94
2022-09-18T04:35:31.397Z,12.05
2022-09-18T04:38:03.381Z,12.15
2022-09-18T04:40:35.639Z,12.28
2022-09-18T04:43:09.317Z,12.41
2022-09-18T04:45:43.549Z,12.55
2022-09-18T04:48:18.353Z,12.71
2022-09-18T04:50:51.404Z,12.92
2022-09-18T04:53:23.512Z,13.08
2022-09-18T04:55:55.877Z,13.21
2022-09-18T04:58:27.863Z,13.33
2022-09-18T05:01:01.775Z,13.48
2022-09-18T05:03:34.684Z,13.78
2022-09-18T05:06:07.056Z,14.43
2022-09-18T05:08:40.483Z,15.48
2022-09-18T05:11:12.665Z,16.20
2022-09-18T05:13:47.247Z,16.25
2022-09-18T05:16:19.963Z,16.25
2022-09-18T05:18:54.607Z,16.16
2022-09-18T05:21:27.489Z,16.13
2022-09-18T05:23:59.820Z,16.47
2022-09-18T05:26:32.033Z,16.87
2022-09-18T05:29:04.318Z,16.81
2022-09-18T05:31:36.898Z,16.71
2022-09-18T05:34:09.092Z,16.56
2022-09-18T05:36:41.339Z,17.14
2022-09-18T05:39:17.428Z,17.14
2022-09-18T05:41:51.604Z,17.82
2022-09-18T05:44:23.653Z,18.40
2022-09-18T05:46:56.594Z,18.45
2022-09-18T05:49:28.817Z,18.25
2022-09-18T05:52:01.297Z,18.11
2022-09-18T05:54:35.228Z,17.90
2022-09-18T05:57:07.444Z,17.65
2022-09-18T05:59:39.445Z,17.73
2022-09-18T06:02:13.122Z,18.18
2022-09-18T06:04:49.810Z,18.65
2022-09-18T06:07:22.064Z,19.04
2022-09-18T06:09:55.308Z,19.74
2022-09-18T06:12:27.831Z,20.47
2022-09-18T06:14:59.858Z,21.50
2022-09-18T06:17:33.123Z,21.63
2022-09-18T06:20:08.791Z,21.58
2022-09-18T06:22:40.187Z,20.91
2022-09-18T06:25:12.691Z,20.89
2022-09-18T06:27:44.849Z,19.69
2022-09-18T06:30:17.308Z,19.31
2022-09-18T06:32:49.547Z,19.52
2022-09-18T06:35:22.501Z,20.92
2022-09-18T06:37:54.851Z,22.37
2022-09-18T06:40:29.069Z,23.28
2022-09-18T06:43:11.882Z,23.77
2022-09-18T06:45:56.083Z,24.09
2022-09-18T06:48:29.609Z,23.71
2022-09-18T06:51:02.745Z,23.29
2022-09-18T06:53:36.518Z,22.78
2022-09-18T06:56:09.130Z,22.26
2022-09-18T06:58:41.170Z,21.78
2022-09-18T07:01:13.734Z,21.36
2022-09-18T07:03:52.244Z,21.01
2022-09-18T07:06:29.298Z,20.51
2022-09-18T07:09:02.802Z,19.89
2022-09-18T07:11:36.766Z,19.40
2022-09-18T07:14:09.436Z,19.03
2022-09-18T07:16:42.117Z,18.74
2022-09-18T07:19:15.860Z,18.49
2022-09-18T07:21:47.876Z,18.30
2022-09-18T07:24:20.154Z,18.13
2022-09-18T07:26:52.434Z,18.02
2022-09-18T07:29:24.789Z,17.88
2022-09-18T07:31:57.367Z,17.71
2022-09-18T07:34:30.173Z,17.47
2022-09-18T07:37:03.680Z,17.31
2022-09-18T07:39:36.414Z,17.18
2022-09-18T07:42:28.921Z,17.07
2022-09-18T07:45:01.299Z,16.99
2022-09-18T07:47:33.966Z,16.95
2022-09-18T07:50:06.531Z,17.03
2022-09-18T07:52:38.684Z,17.22
2022-09-18T07:55:12.281Z,17.58
2022-09-18T07:57:46.662Z,17.95
2022-09-18T08:00:28.853Z,18.42
2022-09-18T08:03:07.609Z,18.87
2022-09-18T08:05:42.355Z,19.33
2022-09-18T08:08:16.636Z,19.45
2022-09-18T08:10:59.391Z,19.54
2022-09-18T08:13:45.191Z,19.45
2022-09-18T08:16:28.237Z,19.24
2022-09-18T08:19:17.712Z,19.14
2022-09-18T08:21:51.827Z,19.23
2022-09-18T08:24:24.397Z,19.38
2022-09-18T08:26:58.536Z,19.54
2022-09-18T08:29:34.262Z,19.77
2022-09-18T08:32:09.930Z,19.99
2022-09-18T08:34:42.375Z,20.24
2022-09-18T08:37:16.250Z,20.46
2022-09-18T08:39:50.187Z,20.63
2022-09-18T08:42:26.694Z,20.74
2022-09-18T08:45:08.368Z,20.79
2022-09-18T08:47:47.700Z,20.80
2022-09-18T08:50:32.873Z,20.82
2022-09-18T08:53:09.840Z,20.85
2022-09-18T08:55:47.621Z,20.97
2022-09-18T08:58:32.994Z,21.07
2022-09-18T09:01:20.151Z,21.02
2022-09-18T09:03:59.742Z,21.00
2022-09-18T09:06:39.192Z,20.98
2022-09-18T09:09:31.041Z,21.08
2022-09-18T09:12:11.458Z,21.33
2022-09-18T09:14:57.157Z,21.41
2022-09-18T09:17:42.657Z,21.50
2022-09-18T09:20:35.701Z,21.68
2022-09-18T09:23:20.966Z,21.71
2022-09-18T09:26:09.525Z,21.80
2022-09-18T09:29:08.446Z,21.89
2022-09-18T09:32:01.756Z,22.02
2022-09-18T09:34:53.619Z,22.07
2022-09-18T09:37:33.865Z,22.05
2022-09-18T09:40:09.989Z,21.81
2022-09-18T09:42:45.284Z,21.77
2022-09-18T09:45:25.050Z,21.67
2022-09-18T09:48:27.912Z,21.43
2022-09-18T09:51:23.966Z,21.18
2022-09-18T09:53:57.569Z,21.03
2022-09-18T09:56:48.159Z,20.98
2022-09-18T09:59:36.630Z,20.86
2022-09-18T10:02:40.428Z,20.71
2022-09-18T10:05:19.221Z,20.62
2022-09-18T10:07:58.185Z,20.58
2022-09-18T10:10:42.584Z,20.55
2022-09-18T10:13:21.126Z,20.46
2022-09-18T10:15:56.671Z,20.32
2022-09-18T10:18:32.308Z,20.22
2022-09-18T10:21:10.158Z,20.15
2022-09-18T10:23:46.124Z,20.04
2022-09-18T10:26:24.249Z,19.86
2022-09-18T10:28:56.751Z,19.71
2022-09-18T10:31:49.489Z,19.54
2022-09-18T10:34:37.212Z,19.43
2022-09-18T10:37:31.841Z,19.34
2022-09-18T10:40:07.003Z,19.31
2022-09-18T10:42:39.349Z,19.54
2022-09-18T10:45:30.448Z,19.24
2022-09-18T10:48:27.873Z,19.12
2022-09-18T10:51:03.375Z,19.03
2022-09-18T10:53:39.691Z,18.93
2022-09-18T10:56:20.344Z,18.80
2022-09-18T10:58:54.295Z,18.65
2022-09-18T11:01:27.183Z,18.53
2022-09-18T11:04:05.643Z,18.41
2022-09-18T11:06:41.092Z,18.28
2022-09-18T11:09:23.721Z,18.19
2022-09-18T11:11:56.782Z,18.14
2022-09-18T11:14:33.486Z,18.12
2022-09-18T11:17:08.355Z,18.09
2022-09-18T11:19:42.082Z,18.03
2022-09-18T11:22:43.203Z,17.96
2022-09-18T11:25:22.635Z,17.90
2022-09-18T11:27:58.895Z,17.85
2022-09-18T11:30:35.696Z,17.78
2022-09-18T11:33:18.803Z,17.74
2022-09-18T11:35:54.764Z,17.76
2022-09-18T11:38:29.900Z,17.75
2022-09-18T11:41:03.318Z,17.72
2022-09-18T11:43:39.397Z,17.72
2022-09-18T11:46:23.680Z,17.64
2022-09-18T11:49:08.037Z,17.54
2022-09-18T11:51:53.704Z,17.51
2022-09-18T11:54:34.946Z,17.83
2022-09-18T11:57:13.570Z,17.56
2022-09-18T11:59:51.671Z,17.50
2022-09-18T12:02:32.720Z,17.36
2022-09-18T12:05:08.096Z,17.22
2022-09-18T12:07:58.750Z,17.09
2022-09-18T12:10:51.829Z,16.99
2022-09-18T12:13:47.158Z,16.87
2022-09-18T12:16:40.172Z,16.77
2022-09-18T12:19:29.007Z,16.66
2022-09-18T12:22:13.112Z,16.57
2022-09-18T12:24:45.200Z,16.54
2022-09-18T12:27:30.217Z,16.55
2022-09-18T12:30:17.544Z,16.53
2022-09-18T12:33:07.828Z,16.49
2022-09-18T12:35:51.861Z,16.45
2022-09-18T12:39:00.419Z,16.46
2022-09-18T12:41:35.648Z,16.42
2022-09-18T12:44:28.637Z,16.35
2022-09-18T12:47:24.732Z,16.24
2022-09-18T12:50:15.122Z,16.13
2022-09-18T12:53:08.535Z,16.06
2022-09-18T12:55:47.975Z,15.97
2022-09-18T12:58:56.665Z,15.91
2022-09-18T13:01:37.992Z,15.89
2022-09-18T13:04:29.397Z,15.86
2022-09-18T13:07:10.789Z,15.83
2022-09-18T13:09:49.092Z,15.76
2022-09-18T13:12:30.010Z,15.67
2022-09-18T13:15:14.024Z,15.57
2022-09-18T13:18:01.937Z,15.48
2022-09-18T13:20:37.120Z,15.41
2022-09-18T13:23:22.121Z,15.27
2022-09-18T13:25:54.534Z,15.27
2022-09-18T13:28:28.878Z,15.47
2022-09-18T13:31:31.347Z,15.22
2022-09-18T13:34:08.952Z,15.16
2022-09-18T13:36:43.908Z,15.10
2022-09-18T13:39:22.350Z,15.03
2022-09-18T13:41:56.678Z,14.91
2022-09-18T13:44:29.834Z,14.91
2022-09-18T13:47:16.782Z,15.09
2022-09-18T13:50:01.566Z,14.88
2022-09-18T13:52:36.587Z,14.83
2022-09-18T13:55:18.263Z,14.80
2022-09-18T13:57:52.056Z,14.80
2022-09-18T14:00:28.725Z,14.80
2022-09-18T14:03:13.645Z,14.77
2022-09-18T14:05:46.747Z,14.76
2022-09-18T14:08:24.700Z,14.75
2022-09-18T14:11:15.698Z,14.75
2022-09-18T14:13:51.660Z,14.72
2022-09-18T14:16:30.261Z,14.71
2022-09-18T14:19:06.202Z,14.69
2022-09-18T14:21:44.777Z,14.66
2022-09-18T14:24:25.871Z,14.66
2022-09-18T14:27:04.234Z,14.55
2022-09-18T14:29:37.115Z,14.64
2022-09-18T14:32:15.693Z,14.70
2022-09-18T14:34:48.666Z,14.70
2022-09-18T14:37:33.407Z,14.67
2022-09-18T14:40:06.250Z,14.64
2022-09-18T14:42:41.034Z,14.84
2022-09-18T14:45:16.649Z,14.64
2022-09-18T14:47:50.971Z,14.45
2022-09-18T14:50:32.101Z,14.45
2022-09-18T14:53:21.687Z,14.54
2022-09-18T14:55:59.640Z,14.49
2022-09-18T14:58:37.632Z,14.51
2022-09-18T15:01:12.651Z,14.47
2022-09-18T15:03:47.498Z,14.47
2022-09-18T15:06:32.290Z,14.48
2022-09-18T15:09:05.353Z,14.49
2022-09-18T15:11:52.472Z,14.50
2022-09-18T15:14:20.724Z,14.45
2022-09-18T15:16:58.541Z,14.48
2022-09-18T15:19:32.496Z,14.46
2022-09-18T15:22:04.618Z,14.51
2022-09-18T15:24:37.023Z,14.48
2022-09-18T15:27:09.802Z,14.49
2022-09-18T15:29:47.440Z,14.49
2022-09-18T15:32:24.929Z,14.48
2022-09-18T15:34:58.672Z,14.43
2022-09-18T15:37:32.334Z,14.55
2022-09-18T15:40:08.010Z,14.51
2022-09-18T15:42:44.043Z,14.51
2022-09-18T15:45:22.636Z,14.47
2022-09-18T15:47:55.833Z,14.47
2022-09-18T15:50:34.702Z,14.48
2022-09-18T15:53:18.849Z,14.48
2022-09-18T15:55:56.397Z,14.47
2022-09-18T15:58:34.357Z,14.47
2022-09-18T16:01:09.327Z,14.50
2022-09-18T16:03:42.171Z,14.52
2022-09-18T16:06:23.027Z,14.52
2022-09-18T16:08:57.297Z,14.52
2022-09-18T16:11:41.046Z,14.54
2022-09-18T16:14:44.392Z,14.54
2022-09-18T16:17:36.724Z,14.58
2022-09-18T16:20:42.440Z,14.59
2022-09-18T16:23:24.335Z,14.58
2022-09-18T16:26:06.093Z,14.57
2022-09-18T16:28:46.758Z,14.59
2022-09-18T16:31:21.366Z,14.56
2022-09-18T16:34:02.065Z,14.56
2022-09-18T16:36:38.409Z,14.46
2022-09-18T16:39:13.092Z,14.46
2022-09-18T16:41:45.681Z,14.59
2022-09-18T16:44:18.906Z,14.58
2022-09-18T16:46:53.891Z,14.47
2022-09-18T16:49:30.777Z,14.47
2022-09-18T16:52:03.177Z,14.58
2022-09-18T16:54:35.879Z,14.59
2022-09-18T16:57:13.339Z,14.48
2022-09-18T16:59:46.175Z,14.48
2022-09-18T17:02:25.378Z,14.58
2022-09-18T17:04:55.002Z,14.61
2022-09-18T17:07:26.992Z,14.62
2022-09-18T17:09:59.652Z,14.62
2022-09-18T17:12:32.971Z,14.65
2022-09-18T17:15:05.650Z,14.68
2022-09-18T17:17:38.157Z,14.68
2022-09-18T17:20:10.732Z,14.64
2022-09-18T17:22:42.673Z,14.63
2022-09-18T17:25:15.790Z,14.60
2022-09-18T17:27:49.624Z,14.48
2022-09-18T17:30:21.680Z,14.48
2022-09-18T17:32:53.914Z,14.58
2022-09-18T17:35:26.620Z,14.57
2022-09-18T17:37:58.676Z,14.55
2022-09-18T17:40:30.664Z,14.50
2022-09-18T17:43:02.527Z,14.50
2022-09-18T17:45:34.978Z,14.52
2022-09-18T17:48:06.909Z,14.39
2022-09-18T17:50:38.871Z,14.49
2022-09-18T17:53:11.047Z,14.52
2022-09-18T17:55:44.611Z,14.46
2022-09-18T17:58:16.742Z,14.53
2022-09-18T18:00:48.929Z,14.54
2022-09-18T18:03:21.237Z,14.53
2022-09-18T18:05:54.806Z,14.55
2022-09-18T18:08:30.765Z,14.56
2022-09-18T18:11:08.738Z,14.46
2022-09-18T18:13:42.298Z,14.46
2022-09-18T18:16:17.947Z,14.46
2022-09-18T18:18:50.823Z,14.64
2022-09-18T18:21:23.832Z,14.64
2022-09-18T18:23:57.658Z,14.66
2022-09-18T18:26:29.989Z,14.68
2022-09-18T18:29:03.746Z,14.71
2022-09-18T18:31:36.386Z,14.72
2022-09-18T18:34:10.570Z,14.73
2022-09-18T18:36:43.552Z,14.75
2022-09-18T18:39:16.235Z,14.77
2022-09-18T18:41:50.534Z,14.72
2022-09-18T18:44:23.381Z,14.76
2022-09-18T18:46:56.121Z,14.78
2022-09-18T18:49:28.304Z,14.78
2022-09-18T18:52:02.761Z,14.77
2022-09-18T18:54:35.006Z,14.77
2022-09-18T18:57:11.787Z,14.75
2022-09-18T18:59:45.250Z,14.75
2022-09-18T19:02:17.594Z,14.77
2022-09-18T19:04:50.840Z,14.79
2022-09-18T19:07:24.065Z,14.79
2022-09-18T19:09:58.081Z,14.80
2022-09-18T19:12:32.677Z,14.79
2022-09-18T19:15:06.409Z,14.82
2022-09-18T19:17:41.386Z,14.82
2022-09-18T19:20:14.510Z,14.75
2022-09-18T19:22:56.736Z,14.71
2022-09-18T19:25:30.562Z,14.81
2022-09-18T19:28:02.735Z,14.81
2022-09-18T19:30:40.277Z,14.81
2022-09-18T19:33:17.338Z,14.81
2022-09-18T19:35:50.885Z,14.81
2022-09-18T19:38:23.199Z,14.82
2022-09-18T19:40:56.230Z,14.80
2022-09-18T19:43:31.762Z,14.78
2022-09-18T19:46:05.460Z,14.78
2022-09-18T19:48:38.177Z,14.78
2022-09-18T19:51:10.512Z,14.77
2022-09-18T19:53:42.848Z,14.77
2022-09-18T19:56:33.126Z,14.55
2022-09-18T19:58:53.038Z,14.73
2022-09-18T20:01:25.047Z,14.72
2022-09-18T20:03:58.837Z,14.57
2022-09-18T20:06:33.109Z,14.57
2022-09-18T20:09:05.576Z,14.68
2022-09-18T20:11:37.769Z,14.65
2022-09-18T20:14:09.703Z,14.64
2022-09-18T20:16:41.692Z,14.51
2022-09-18T20:19:13.944Z,14.57
2022-09-18T20:21:45.946Z,14.51
2022-09-18T20:24:20.114Z,14.51
2022-09-18T20:26:52.118Z,14.40
2022-09-18T20:29:24.462Z,14.49
2022-09-18T20:31:58.240Z,14.47
2022-09-18T20:34:30.366Z,14.49
2022-09-18T20:37:03.659Z,14.50
2022-09-18T20:39:35.947Z,14.51
2022-09-18T20:42:08.138Z,14.52
2022-09-18T20:44:42.183Z,14.54
2022-09-18T20:47:14.268Z,14.54
2022-09-18T20:49:46.271Z,14.55
2022-09-18T20:52:18.748Z,14.56
2022-09-18T20:54:53.057Z,14.57
2022-09-18T20:57:25.742Z,14.59
2022-09-18T20:59:58.118Z,14.59
2022-09-18T21:02:32.300Z,14.59
2022-09-18T21:05:12.713Z,14.60
2022-09-18T21:07:45.076Z,14.59
2022-09-18T21:10:18.315Z,14.61
2022-09-18T21:12:50.620Z,14.61
2022-09-18T21:15:22.660Z,14.60
2022-09-18T21:17:54.977Z,14.59
2022-09-18T21:20:29.812Z,14.53
2022-09-18T21:23:19.324Z,14.53
2022-09-18T21:25:51.898Z,14.53
2022-09-18T21:28:24.791Z,14.42
2022-09-18T21:30:59.565Z,14.53
2022-09-18T21:33:35.622Z,14.54
2022-09-18T21:36:11.207Z,14.54
2022-09-18T21:38:45.203Z,14.55
2022-09-18T21:41:18.724Z,14.56
2022-09-18T21:43:51.599Z,14.57
2022-09-18T21:46:25.404Z,14.58
2022-09-18T21:48:57.524Z,14.63
2022-09-18T21:51:30.119Z,14.50
2022-09-18T21:54:05.733Z,14.50
2022-09-18T21:56:38.254Z,14.64
2022-09-18T21:59:12.914Z,14.67
2022-09-18T22:01:47.004Z,14.71
2022-09-18T22:04:20.934Z,14.75
2022-09-18T22:06:54.123Z,14.76
2022-09-18T22:09:29.230Z,14.76
2022-09-18T22:12:02.211Z,14.70
2022-09-18T22:14:36.022Z,14.77
2022-09-18T22:17:09.861Z,14.78
2022-09-18T22:19:42.583Z,14.80
2022-09-18T22:22:15.259Z,14.83
2022-09-18T22:24:48.278Z,14.83
2022-09-18T22:27:20.810Z,14.83
2022-09-18T22:29:52.950Z,14.83
2022-09-18T22:32:25.259Z,14.83
2022-09-18T22:34:57.533Z,14.83
2022-09-18T22:37:29.604Z,14.85
2022-09-18T22:40:02.745Z,14.88
2022-09-18T22:42:34.576Z,14.90
2022-09-18T22:45:08.606Z,14.90
2022-09-18T22:47:41.137Z,14.91
2022-09-18T22:50:13.662Z,14.92
2022-09-18T22:52:46.112Z,14.94
2022-09-18T22:55:18.484Z,14.80
2022-09-18T22:57:50.985Z,14.98
2022-09-18T23:00:23.644Z,14.98
2022-09-18T23:02:56.289Z,15.04
2022-09-18T23:05:29.764Z,15.03
2022-09-18T23:08:03.663Z,15.07
2022-09-18T23:10:36.581Z,15.10
2022-09-18T23:13:09.787Z,15.14
2022-09-18T23:15:41.932Z,15.14
2022-09-18T23:18:15.468Z,15.20
2022-09-18T23:20:47.615Z,15.22
2022-09-18T23:23:22.191Z,15.20
2022-09-18T23:25:54.741Z,15.19
2022-09-18T23:28:29.717Z,15.23
2022-09-18T23:31:13.080Z,15.23
2022-09-18T23:33:48.537Z,15.22
2022-09-18T23:36:26.036Z,15.24
2022-09-18T23:39:03.687Z,15.25
2022-09-18T23:41:38.000Z,15.26
2022-09-18T23:44:13.694Z,15.26
2022-09-18T23:46:47.371Z,15.28
2022-09-18T23:49:23.955Z,15.26
2022-09-18T23:51:56.857Z,15.32
2022-09-18T23:54:31.366Z,15.26
2022-09-18T23:57:02.771Z,15.15
2022-09-18T23:59:34.717Z,15.40
